createdAt,value
2017-06-30T00:01:13.946Z,74.80
2017-06-30T00:03:40.577Z,75.50
2017-06-30T00:06:06.843Z,76.10
2017-06-30T00:08:33.108Z,75.40
2017-06-30T00:10:59.419Z,75.50
2017-06-30T00:13:25.684Z,75.20
2017-06-30T00:15:51.935Z,75.50
2017-06-30T00:18:18.191Z,75.90
2017-06-30T00:20:44.474Z,75.90
2017-06-30T00:23:10.729Z,76.50
2017-06-30T00:25:37.022Z,77.20
2017-06-30T00:28:03.307Z,77.70
2017-06-30T00:30:29.585Z,77.70
2017-06-30T00:32:55.891Z,77.00
2017-06-30T00:35:22.171Z,77.60
2017-06-30T00:37:48.466Z,77.50
2017-06-30T00:40:14.744Z,77.00
2017-06-30T00:42:41.025Z,76.50
2017-06-30T00:45:07.296Z,76.20
2017-06-30T00:47:33.575Z,76.10
2017-06-30T00:49:59.878Z,75.90
2017-06-30T00:52:26.549Z,75.60
2017-06-30T00:54:52.807Z,75.60
2017-06-30T00:57:19.067Z,76.30
2017-06-30T00:59:45.345Z,75.20
2017-06-30T01:02:11.668Z,74.90
2017-06-30T01:04:37.937Z,75.00
2017-06-30T01:07:04.533Z,74.70
2017-06-30T01:09:30.802Z,75.20
2017-06-30T01:11:57.083Z,75.90
2017-06-30T01:14:23.393Z,75.70
2017-06-30T01:16:49.668Z,75.30
2017-06-30T01:19:15.931Z,75.80
2017-06-30T01:21:42.200Z,75.50
2017-06-30T01:24:08.962Z,75.80
2017-06-30T01:26:35.230Z,76.30
2017-06-30T01:29:01.497Z,75.90
2017-06-30T01:31:27.785Z,75.90
2017-06-30T01:33:54.091Z,75.90
2017-06-30T01:36:20.362Z,75.70
2017-06-30T01:38:46.647Z,75.30
2017-06-30T01:41:13.381Z,75.60
2017-06-30T01:43:39.631Z,76.60
2017-06-30T01:46:05.941Z,76.90
2017-06-30T01:48:32.235Z,77.40
2017-06-30T01:50:58.548Z,77.10
2017-06-30T01:53:24.861Z,76.90
2017-06-30T01:55:51.538Z,76.80
2017-06-30T01:58:18.176Z,76.80
2017-06-30T02:00:44.413Z,76.90
2017-06-30T02:03:10.656Z,76.80
2017-06-30T02:05:36.958Z,77.20
2017-06-30T02:08:03.287Z,77.60
2017-06-30T02:10:29.558Z,78.20
2017-06-30T02:12:55.845Z,77.90
2017-06-30T02:15:22.112Z,77.60
2017-06-30T02:17:48.389Z,78.00
2017-06-30T02:20:14.666Z,76.70
2017-06-30T02:22:40.943Z,76.60
2017-06-30T02:25:07.226Z,76.10
2017-06-30T02:27:33.559Z,77.10
2017-06-30T02:29:59.849Z,77.10
2017-06-30T02:32:26.126Z,76.90
2017-06-30T02:34:52.417Z,77.70
2017-06-30T02:37:18.692Z,76.80
2017-06-30T02:39:44.956Z,77.30
2017-06-30T02:42:11.212Z,76.90
2017-06-30T02:44:37.471Z,77.10
2017-06-30T02:47:03.745Z,77.30
2017-06-30T02:49:30.006Z,77.00
2017-06-30T02:51:56.286Z,76.90
2017-06-30T02:54:22.570Z,76.70
2017-06-30T02:56:48.848Z,76.50
2017-06-30T02:59:15.492Z,76.70
2017-06-30T03:01:41.768Z,76.70
2017-06-30T03:04:08.031Z,76.70
2017-06-30T03:06:34.308Z,77.30
2017-06-30T03:09:00.570Z,77.50
2017-06-30T03:11:26.870Z,77.60
2017-06-30T03:13:53.159Z,77.50
2017-06-30T03:16:19.400Z,77.70
2017-06-30T03:18:45.695Z,78.60
2017-06-30T03:21:11.985Z,77.10
2017-06-30T03:23:38.274Z,77.80
2017-06-30T03:26:04.554Z,77.50
2017-06-30T03:28:30.808Z,77.50
2017-06-30T03:30:57.328Z,76.90
2017-06-30T03:33:23.603Z,76.70
2017-06-30T03:35:50.169Z,76.50
2017-06-30T03:38:16.466Z,77.00
2017-06-30T03:40:42.726Z,77.40
2017-06-30T03:43:09.000Z,77.10
2017-06-30T03:45:35.267Z,77.90
2017-06-30T03:48:01.933Z,77.70
2017-06-30T03:50:28.198Z,77.60
2017-06-30T03:52:54.451Z,77.00
2017-06-30T03:55:20.747Z,76.80
2017-06-30T03:57:47.022Z,77.50
2017-06-30T04:00:13.300Z,77.50
2017-06-30T04:02:39.590Z,77.40
2017-06-30T04:05:06.008Z,77.40
2017-06-30T04:07:33.216Z,77.00
2017-06-30T04:09:59.762Z,76.60
2017-06-30T04:12:26.065Z,77.00
2017-06-30T04:14:52.348Z,77.10
2017-06-30T04:17:18.622Z,77.10
2017-06-30T04:19:44.891Z,76.90
2017-06-30T04:22:12.002Z,76.10
2017-06-30T04:24:38.273Z,76.10
2017-06-30T04:27:04.565Z,76.10
2017-06-30T04:29:30.849Z,74.90
2017-06-30T04:31:57.137Z,74.10
2017-06-30T04:34:23.419Z,73.60
2017-06-30T04:36:49.668Z,73.20
2017-06-30T04:39:15.959Z,73.10
2017-06-30T04:41:42.255Z,73.40
2017-06-30T04:44:08.540Z,74.40
2017-06-30T04:46:35.280Z,73.50
2017-06-30T04:49:01.553Z,72.80
2017-06-30T04:51:27.829Z,73.40
2017-06-30T04:53:54.097Z,74.50
2017-06-30T04:56:20.408Z,73.30
2017-06-30T04:58:46.683Z,73.20
2017-06-30T05:01:12.916Z,73.30
2017-06-30T05:03:39.195Z,73.10
2017-06-30T05:06:05.476Z,73.40
2017-06-30T05:08:32.119Z,72.30
2017-06-30T05:10:58.752Z,71.10
2017-06-30T05:13:25.408Z,71.60
2017-06-30T05:15:51.957Z,71.60
2017-06-30T05:18:18.211Z,72.20
2017-06-30T05:20:44.467Z,71.80
2017-06-30T05:23:10.756Z,71.50
2017-06-30T05:25:37.019Z,71.90
2017-06-30T05:28:03.314Z,72.60
2017-06-30T05:30:29.555Z,72.30
2017-06-30T05:32:56.269Z,72.30
2017-06-30T05:35:22.516Z,71.30
2017-06-30T05:37:48.803Z,71.60
2017-06-30T05:40:15.105Z,71.60
2017-06-30T05:42:41.360Z,72.10
2017-06-30T05:45:08.015Z,73.00
2017-06-30T05:47:34.307Z,73.00
2017-06-30T05:50:00.622Z,72.50
2017-06-30T05:52:26.894Z,73.20
2017-06-30T05:54:53.165Z,72.70
2017-06-30T05:57:19.433Z,73.50
2017-06-30T05:59:45.694Z,73.70
2017-06-30T06:02:12.013Z,72.10
2017-06-30T06:04:38.309Z,71.60
2017-06-30T06:07:04.945Z,72.00
2017-06-30T06:09:31.192Z,70.70
2017-06-30T06:11:57.475Z,70.60
2017-06-30T06:14:23.753Z,69.90
2017-06-30T06:16:50.409Z,69.90
2017-06-30T06:19:16.686Z,70.00
2017-06-30T06:21:42.961Z,70.50
2017-06-30T06:24:09.743Z,70.10
2017-06-30T06:26:36.026Z,69.50
2017-06-30T06:29:02.280Z,70.60
2017-06-30T06:31:28.606Z,70.00
2017-06-30T06:33:54.882Z,70.20
2017-06-30T06:36:21.185Z,70.90
2017-06-30T06:38:47.430Z,70.70
2017-06-30T06:41:14.151Z,71.00
2017-06-30T06:43:40.400Z,70.40
2017-06-30T06:46:06.688Z,69.20
2017-06-30T06:48:32.982Z,70.30
2017-06-30T06:50:59.223Z,69.90
2017-06-30T06:53:25.493Z,69.10
2017-06-30T06:55:51.761Z,68.60
2017-06-30T06:58:18.389Z,69.00
2017-06-30T07:00:44.676Z,69.60
2017-06-30T07:03:10.942Z,69.90
2017-06-30T07:05:37.214Z,69.50
2017-06-30T07:08:03.480Z,68.30
2017-06-30T07:10:29.760Z,67.80
2017-06-30T07:12:56.041Z,67.90
2017-06-30T07:15:22.776Z,66.40
2017-06-30T07:17:49.027Z,65.80
2017-06-30T07:20:15.306Z,66.00
2017-06-30T07:22:41.598Z,64.80
2017-06-30T07:25:07.864Z,66.00
2017-06-30T07:27:34.244Z,63.40
2017-06-30T07:30:00.508Z,63.60
2017-06-30T07:32:27.428Z,63.50
2017-06-30T07:34:53.679Z,63.50
2017-06-30T07:37:19.963Z,63.00
2017-06-30T07:39:46.267Z,63.40
2017-06-30T07:42:12.568Z,63.20
2017-06-30T07:44:38.897Z,65.20
2017-06-30T07:47:05.545Z,63.20
2017-06-30T07:49:32.124Z,63.20
2017-06-30T07:51:58.389Z,62.20
2017-06-30T07:54:25.009Z,61.30
2017-06-30T07:56:51.299Z,61.30
2017-06-30T07:59:17.558Z,61.00
2017-06-30T08:01:43.853Z,61.70
2017-06-30T08:04:10.581Z,62.20
2017-06-30T08:06:36.872Z,62.40
2017-06-30T08:09:03.201Z,60.40
2017-06-30T08:11:29.486Z,60.00
2017-06-30T08:13:55.784Z,60.00
2017-06-30T08:16:22.368Z,58.60
2017-06-30T08:18:48.649Z,58.20
2017-06-30T08:21:14.936Z,58.90
2017-06-30T08:23:41.225Z,59.30
2017-06-30T08:26:07.903Z,60.30
2017-06-30T08:28:34.195Z,61.10
2017-06-30T08:31:00.465Z,59.50
2017-06-30T08:33:26.742Z,59.20
2017-06-30T08:35:52.991Z,58.30
2017-06-30T08:38:19.279Z,58.30
2017-06-30T08:40:45.570Z,56.70
2017-06-30T08:43:12.309Z,57.20
2017-06-30T08:45:38.597Z,57.90
2017-06-30T08:48:04.871Z,57.30
2017-06-30T08:50:31.173Z,56.10
2017-06-30T08:52:58.736Z,54.60
2017-06-30T08:55:26.672Z,55.00
2017-06-30T08:57:54.640Z,54.40
2017-06-30T09:00:22.252Z,54.40
2017-06-30T09:02:49.835Z,55.10
2017-06-30T09:05:17.414Z,53.90
2017-06-30T09:07:45.329Z,53.10
2017-06-30T09:10:12.906Z,52.00
2017-06-30T09:12:40.493Z,51.60
2017-06-30T09:15:08.096Z,52.80
2017-06-30T09:17:35.686Z,52.70
2017-06-30T09:20:03.278Z,52.50
2017-06-30T09:22:30.861Z,52.50
2017-06-30T09:24:58.479Z,50.80
2017-06-30T09:27:26.068Z,52.60
2017-06-30T09:29:54.055Z,52.00
2017-06-30T09:32:21.657Z,52.00
2017-06-30T09:34:49.236Z,53.20
2017-06-30T09:37:16.831Z,52.50
2017-06-30T09:39:44.414Z,49.90
2017-06-30T09:42:12.464Z,51.40
2017-06-30T09:44:40.419Z,50.60
2017-06-30T09:47:07.996Z,50.60
2017-06-30T09:49:35.589Z,51.30
2017-06-30T09:52:03.199Z,49.80
2017-06-30T09:54:30.804Z,50.70
2017-06-30T09:56:58.396Z,49.20
2017-06-30T09:59:26.276Z,49.10
2017-06-30T10:01:54.254Z,48.40
2017-06-30T10:04:21.829Z,48.40
2017-06-30T10:06:49.439Z,48.80
2017-06-30T10:09:17.020Z,51.20
2017-06-30T10:11:45.382Z,50.90
2017-06-30T10:14:12.961Z,48.70
2017-06-30T10:16:40.564Z,49.30
2017-06-30T10:19:08.150Z,49.90
2017-06-30T10:21:35.729Z,49.60
2017-06-30T10:24:03.341Z,47.80
2017-06-30T10:26:30.928Z,47.50
2017-06-30T10:28:58.827Z,47.90
2017-06-30T10:31:26.410Z,47.30
2017-06-30T10:33:53.983Z,47.50
2017-06-30T10:36:21.584Z,48.30
2017-06-30T10:38:49.169Z,44.80
2017-06-30T10:41:16.763Z,45.40
2017-06-30T10:43:44.339Z,45.70
2017-06-30T10:46:12.263Z,46.10
2017-06-30T10:48:40.241Z,46.10
2017-06-30T10:51:07.816Z,46.10
2017-06-30T10:53:35.682Z,44.90
2017-06-30T10:56:03.254Z,45.10
2017-06-30T10:58:30.853Z,45.50
2017-06-30T11:00:58.482Z,43.90
2017-06-30T11:03:26.399Z,42.60
2017-06-30T11:05:54.014Z,44.70
2017-06-30T11:08:21.617Z,43.90
2017-06-30T11:10:49.234Z,43.00
2017-06-30T11:13:16.810Z,43.40
2017-06-30T11:15:44.452Z,44.50
2017-06-30T11:18:12.046Z,39.70
2017-06-30T11:20:39.928Z,42.80
2017-06-30T11:23:07.507Z,42.50
2017-06-30T11:25:35.110Z,43.20
2017-06-30T11:28:02.704Z,41.30
2017-06-30T11:30:32.112Z,41.40
2017-06-30T11:32:59.710Z,40.40
2017-06-30T11:35:27.294Z,40.30
2017-06-30T11:37:55.192Z,40.30
2017-06-30T11:40:22.789Z,40.00
2017-06-30T11:42:50.390Z,40.20
2017-06-30T11:45:17.990Z,40.60
2017-06-30T11:47:45.964Z,37.60
2017-06-30T11:50:13.913Z,37.60
2017-06-30T11:52:41.479Z,36.40
2017-06-30T11:55:10.250Z,36.80
2017-06-30T11:57:37.882Z,34.50
2017-06-30T12:00:05.488Z,32.30
2017-06-30T12:02:33.384Z,29.70
2017-06-30T12:05:00.965Z,27.90
2017-06-30T12:07:28.545Z,26.90
2017-06-30T12:09:56.129Z,28.30
2017-06-30T12:12:23.698Z,26.70
2017-06-30T12:14:51.699Z,25.00
2017-06-30T12:17:19.276Z,25.00
2017-06-30T12:19:46.869Z,22.80
2017-06-30T12:22:14.439Z,21.50
2017-06-30T12:24:42.036Z,20.40
2017-06-30T12:27:09.632Z,20.50
2017-06-30T12:29:37.217Z,20.90
2017-06-30T12:32:04.825Z,19.70
2017-06-30T12:34:32.384Z,17.80
2017-06-30T12:37:00.302Z,15.50
2017-06-30T12:39:27.880Z,15.70
2017-06-30T12:41:55.460Z,16.50
2017-06-30T12:44:23.074Z,16.10
2017-06-30T12:46:50.635Z,16.00
2017-06-30T12:49:18.230Z,16.00
2017-06-30T12:51:45.806Z,16.50
2017-06-30T12:54:13.744Z,17.40
2017-06-30T12:56:41.728Z,17.60
2017-06-30T12:59:09.319Z,17.60
2017-06-30T13:01:36.931Z,17.30
2017-06-30T13:04:04.907Z,19.80
2017-06-30T13:06:32.501Z,19.80
2017-06-30T13:09:00.109Z,23.10
2017-06-30T13:11:27.980Z,23.70
2017-06-30T13:13:55.561Z,21.70
2017-06-30T13:16:23.136Z,22.60
2017-06-30T13:18:50.725Z,21.90
2017-06-30T13:21:18.305Z,22.30
2017-06-30T13:23:45.897Z,24.70
2017-06-30T13:26:13.888Z,22.20
2017-06-30T13:28:41.841Z,22.20
2017-06-30T13:31:09.422Z,22.30
2017-06-30T13:33:36.998Z,20.80
2017-06-30T13:36:04.620Z,19.70
2017-06-30T13:38:32.185Z,23.70
2017-06-30T13:41:00.045Z,27.10
2017-06-30T13:43:27.617Z,29.70
2017-06-30T13:45:55.215Z,30.10
2017-06-30T13:48:22.833Z,29.70
2017-06-30T13:50:50.398Z,30.10
2017-06-30T13:53:18.277Z,25.60
2017-06-30T13:55:45.895Z,23.70
2017-06-30T13:58:13.860Z,20.70
2017-06-30T14:00:41.461Z,20.70
2017-06-30T14:03:09.037Z,18.50
2017-06-30T14:05:36.644Z,17.80
2017-06-30T14:08:04.237Z,16.40
2017-06-30T14:10:32.031Z,17.30
2017-06-30T14:12:59.627Z,15.60
2017-06-30T14:15:27.200Z,15.50
2017-06-30T14:17:55.210Z,14.10
2017-06-30T14:20:22.808Z,14.10
2017-06-30T14:22:50.442Z,14.20
2017-06-30T14:25:18.028Z,13.70
2017-06-30T14:27:45.902Z,14.80
2017-06-30T14:30:13.471Z,14.30
2017-06-30T14:32:41.052Z,13.90
2017-06-30T14:35:09.261Z,14.50
2017-06-30T14:37:36.827Z,14.00
2017-06-30T14:40:04.440Z,15.00
2017-06-30T14:42:32.029Z,18.10
2017-06-30T14:44:59.968Z,16.80
2017-06-30T14:47:27.531Z,17.00
2017-06-30T14:49:55.902Z,19.20
2017-06-30T14:52:23.502Z,20.20
2017-06-30T14:54:51.090Z,18.30
2017-06-30T14:57:18.729Z,17.40
2017-06-30T14:59:46.314Z,16.50
2017-06-30T15:02:14.776Z,17.10
2017-06-30T15:04:42.371Z,17.80
2017-06-30T15:07:09.975Z,18.70
2017-06-30T15:09:37.565Z,17.80
2017-06-30T15:12:05.154Z,17.20
2017-06-30T15:14:32.809Z,18.50
2017-06-30T15:17:00.397Z,15.80
2017-06-30T15:19:28.013Z,15.50
2017-06-30T15:21:55.613Z,16.70
2017-06-30T15:24:23.183Z,14.70
2017-06-30T15:26:50.791Z,15.70
2017-06-30T15:29:18.377Z,17.90
2017-06-30T15:31:45.984Z,16.20
2017-06-30T15:34:13.553Z,16.00
2017-06-30T15:36:41.177Z,15.90
2017-06-30T15:39:08.755Z,16.30
2017-06-30T15:41:36.367Z,16.60
2017-06-30T15:44:04.030Z,18.00
2017-06-30T15:46:32.035Z,17.40
2017-06-30T15:48:59.624Z,17.40
2017-06-30T15:51:27.781Z,16.90
2017-06-30T15:53:55.723Z,16.40
2017-06-30T15:56:23.302Z,16.20
2017-06-30T15:58:50.897Z,17.90
2017-06-30T16:01:18.481Z,17.90
2017-06-30T16:03:46.459Z,18.10
2017-06-30T16:06:14.046Z,18.10
2017-06-30T16:08:41.622Z,18.10
2017-06-30T16:11:09.494Z,18.70
2017-06-30T16:13:37.066Z,20.60
2017-06-30T16:16:04.684Z,21.20
2017-06-30T16:18:32.336Z,20.10
2017-06-30T16:20:59.932Z,21.60
2017-06-30T16:23:27.539Z,21.80
2017-06-30T16:25:55.124Z,22.50
2017-06-30T16:28:22.983Z,23.00
2017-06-30T16:30:50.582Z,24.40
2017-06-30T16:33:18.151Z,26.40
2017-06-30T16:35:45.749Z,24.70
2017-06-30T16:38:13.729Z,26.50
2017-06-30T16:40:41.341Z,26.50
2017-06-30T16:43:08.939Z,28.90
2017-06-30T16:45:37.205Z,30.40
2017-06-30T16:48:04.785Z,30.40
2017-06-30T16:50:32.367Z,31.30
2017-06-30T16:52:59.954Z,31.60
2017-06-30T16:55:27.528Z,32.00
2017-06-30T16:57:55.154Z,32.30
2017-06-30T17:00:22.737Z,33.60
2017-06-30T17:02:51.436Z,33.30
2017-06-30T17:05:19.004Z,43.30
2017-06-30T17:07:46.609Z,38.30
2017-06-30T17:10:14.204Z,36.80
2017-06-30T17:12:43.394Z,34.50
2017-06-30T17:15:10.988Z,35.70
2017-06-30T17:17:38.961Z,39.70
2017-06-30T17:20:06.915Z,39.70
2017-06-30T17:22:34.505Z,40.80
2017-06-30T17:25:02.089Z,41.90
2017-06-30T17:27:29.670Z,42.10
2017-06-30T17:29:57.254Z,41.50
2017-06-30T17:32:24.858Z,43.80
2017-06-30T17:34:52.454Z,40.90
2017-06-30T17:37:20.056Z,38.60
2017-06-30T17:39:47.669Z,38.90
2017-06-30T17:42:15.257Z,42.00
2017-06-30T17:44:42.866Z,40.10
2017-06-30T17:47:10.573Z,39.10
2017-06-30T17:49:38.444Z,41.00
2017-06-30T17:52:06.022Z,43.20
2017-06-30T17:54:33.615Z,42.10
2017-06-30T17:57:01.217Z,41.30
2017-06-30T17:59:29.201Z,44.20
2017-06-30T18:01:57.104Z,44.10
2017-06-30T18:04:24.709Z,44.20
2017-06-30T18:06:52.288Z,47.10
2017-06-30T18:09:19.907Z,54.20
2017-06-30T18:11:47.481Z,58.00
2017-06-30T18:14:15.076Z,58.80
2017-06-30T18:16:42.658Z,57.10
2017-06-30T18:19:10.609Z,58.60
2017-06-30T18:21:38.580Z,58.40
2017-06-30T18:24:06.153Z,58.30
2017-06-30T18:26:33.771Z,57.90
2017-06-30T18:29:01.353Z,56.00
2017-06-30T18:31:29.316Z,56.60
2017-06-30T18:33:57.305Z,57.70
2017-06-30T18:36:24.900Z,57.70
2017-06-30T18:38:52.509Z,57.40
2017-06-30T18:41:20.524Z,57.10
2017-06-30T18:43:48.109Z,57.10
2017-06-30T18:46:15.727Z,57.50
2017-06-30T18:48:43.341Z,57.80
2017-06-30T18:51:10.938Z,57.30
2017-06-30T18:53:39.491Z,55.60
2017-06-30T18:56:07.110Z,58.20
2017-06-30T18:58:34.710Z,59.20
2017-06-30T19:01:02.696Z,60.00
2017-06-30T19:03:31.607Z,58.30
2017-06-30T19:05:59.188Z,58.30
2017-06-30T19:08:26.802Z,58.40
2017-06-30T19:10:54.387Z,57.50
2017-06-30T19:13:22.876Z,58.00
2017-06-30T19:15:50.505Z,58.20
2017-06-30T19:18:18.505Z,59.20
2017-06-30T19:20:46.151Z,59.20
2017-06-30T19:23:13.823Z,58.50
2017-06-30T19:25:41.453Z,59.10
2017-06-30T19:28:09.922Z,58.60
2017-06-30T19:30:37.544Z,60.30
2017-06-30T19:33:05.224Z,60.20
2017-06-30T19:35:32.791Z,60.40
2017-06-30T19:38:01.512Z,60.90
2017-06-30T19:40:29.486Z,62.60
2017-06-30T19:42:57.122Z,62.50
2017-06-30T19:45:24.748Z,62.10
2017-06-30T19:47:52.337Z,61.90
2017-06-30T19:50:20.031Z,62.60
2017-06-30T19:52:48.461Z,63.30
2017-06-30T19:55:16.370Z,63.30
2017-06-30T19:57:43.966Z,62.30
2017-06-30T20:00:11.551Z,62.80
2017-06-30T20:02:39.177Z,63.30
2017-06-30T20:05:06.927Z,64.10
2017-06-30T20:07:34.519Z,65.10
2017-06-30T20:10:02.151Z,65.60
2017-06-30T20:12:30.102Z,65.60
2017-06-30T20:14:58.031Z,65.90
2017-06-30T20:17:25.692Z,65.90
2017-06-30T20:19:53.747Z,66.20
2017-06-30T20:22:21.347Z,67.10
2017-06-30T20:24:48.961Z,66.90
2017-06-30T20:27:16.587Z,68.10
2017-06-30T20:29:44.653Z,67.50
2017-06-30T20:32:12.639Z,67.00
2017-06-30T20:34:40.328Z,67.00
2017-06-30T20:37:08.426Z,67.10
2017-06-30T20:39:36.049Z,66.70
2017-06-30T20:42:03.665Z,65.80
2017-06-30T20:44:32.136Z,66.20
2017-06-30T20:47:00.152Z,66.10
2017-06-30T20:49:27.738Z,66.40
2017-06-30T20:51:55.342Z,66.20
2017-06-30T20:54:22.953Z,65.10
2017-06-30T20:56:50.534Z,65.40
2017-06-30T20:59:18.131Z,65.00
2017-06-30T21:01:45.715Z,65.20
2017-06-30T21:04:13.697Z,66.00
2017-06-30T21:06:41.298Z,64.70
2017-06-30T21:09:08.911Z,64.80
2017-06-30T21:11:36.516Z,64.00
2017-06-30T21:14:04.119Z,64.50
2017-06-30T21:16:31.987Z,64.60
2017-06-30T21:18:59.575Z,64.90
2017-06-30T21:21:27.169Z,64.90
2017-06-30T21:23:54.768Z,65.50
2017-06-30T21:26:22.344Z,65.70
2017-06-30T21:28:49.952Z,63.80
2017-06-30T21:31:17.540Z,63.60
2017-06-30T21:33:45.496Z,64.20
2017-06-30T21:36:14.213Z,63.80
2017-06-30T21:40:59.713Z,62.60
2017-06-30T21:43:26.001Z,62.50
2017-06-30T21:45:52.331Z,62.90
2017-06-30T21:48:19.053Z,63.30
2017-06-30T21:50:45.631Z,63.30
2017-06-30T21:53:11.915Z,61.00
2017-06-30T21:55:38.201Z,60.10
2017-06-30T21:58:04.522Z,60.00
2017-06-30T22:00:30.867Z,60.40
2017-06-30T22:02:57.153Z,61.60
2017-06-30T22:05:23.808Z,62.40
2017-06-30T22:07:50.366Z,62.40
2017-06-30T22:10:16.675Z,61.40
2017-06-30T22:12:43.000Z,62.60
2017-06-30T22:15:09.398Z,61.70
2017-06-30T22:17:37.506Z,62.30
2017-06-30T22:20:03.809Z,61.70
2017-06-30T22:22:30.134Z,61.70
2017-06-30T22:24:56.437Z,61.30
2017-06-30T22:27:23.004Z,61.50
2017-06-30T22:29:49.308Z,60.40
2017-06-30T22:32:15.592Z,61.60
2017-06-30T22:34:41.904Z,60.00
2017-06-30T22:37:08.206Z,60.70
2017-06-30T22:39:34.579Z,60.20
2017-06-30T22:42:00.885Z,60.90
2017-06-30T22:44:27.157Z,61.30
2017-06-30T22:46:53.453Z,61.40
2017-06-30T22:49:19.736Z,61.70
2017-06-30T22:51:46.085Z,60.30
2017-06-30T22:54:12.363Z,62.60
2017-06-30T22:56:38.653Z,61.70
2017-06-30T22:59:04.921Z,62.20
2017-06-30T23:01:31.205Z,63.20
2017-06-30T23:03:57.514Z,62.60
2017-06-30T23:06:23.788Z,62.60
2017-06-30T23:08:50.470Z,62.60
2017-06-30T23:11:16.783Z,62.60
2017-06-30T23:13:43.023Z,62.70
2017-06-30T23:16:09.323Z,62.70
2017-06-30T23:18:35.959Z,63.60
2017-06-30T23:21:02.608Z,64.20
2017-06-30T23:23:29.247Z,63.80
2017-06-30T23:25:55.931Z,63.60
2017-06-30T23:28:22.254Z,63.60
2017-06-30T23:30:48.589Z,63.60
2017-06-30T23:33:14.900Z,63.90
2017-06-30T23:35:41.193Z,65.00
2017-06-30T23:38:07.861Z,65.10
2017-06-30T23:40:34.177Z,65.10
2017-06-30T23:43:00.464Z,65.20
2017-06-30T23:45:27.184Z,64.60
2017-06-30T23:47:53.527Z,64.80
2017-06-30T23:50:19.806Z,65.10
2017-06-30T23:52:46.707Z,65.50
2017-06-30T23:55:12.976Z,65.70
2017-06-30T23:57:39.287Z,65.10
